Terminal Aerodrome Forecast
Issued by NWS

Home | Current Version | Previous Version | Text Only | Print | Product List | Glossary On
Versions: 1 2 3 4 5 6 7 8 9 10 11 12 13 14 15 16
000
FTUS44 KHGX 251726
TAFCXO
TAF
KCXO 251726Z 2518/2618 20007KT P6SM SCT050
     FM252300 34008KT P6SM BKN060
     FM260100 35011KT P6SM VCSH SCT025 BKN050
      TEMPO 2601/2604 SHRA
     FM260600 34008KT P6SM BKN050
     FM261200 33003KT P6SM MIFG FEW070
     FM261500 32009KT P6SM FEW250=

USA.gov is the U.S. government's official web portal to all federal, state and local government web resources and services.